M I D A S
Marine Information and Data Acquisition System
Tripno 1593 of the Zeeleeuw from 2008-10-22 06:58:39 to 2008-10-22 11:53:53
Back to CruiseResearch ActivitiesStationsMapUnderway DataData graphs

EquipmentUnitsComment
TimeDGPSUTC
LatitudeDGPSDM.mWGS84
LongitudeDGPSDM.mWGS84
HeadingGyrodeg 
SOGDGPSknotsSpeed over ground
COGDGPSdegCourse over ground
DepthEcho soundermeters200 kHz
Missing or incorrect values are displayed as -999
Navigation data collected by the RV Zeeleeuw from 2008-10-22 06:54:10 to 2008-10-22 11:56:52
Time Latitude Longitude Heading SOG COG Depth
2008-10-22 06:55:15 51°13.642 2°55.975 112.2 4.1 293 -999
2008-10-22 06:56:15 51°13.674 2°55.863 112.8 4.5 295 -999
2008-10-22 06:57:15 51°13.694 2°55.773 93.9 3.1 280 -999
2008-10-22 06:58:15 51°13.695 2°55.726 67.3 0.3 292 14.4
2008-10-22 06:59:15 51°13.72 2°55.734 4.3 3.5 353 14.8
2008-10-22 07:00:15 51°13.809 2°55.657 331.8 7.5 332 13
2008-10-22 07:01:15 51°13.931 2°55.559 333.1 8.4 333 13.2
2008-10-22 07:02:15 51°14.057 2°55.461 336.4 8.5 335 12.8
2008-10-22 07:03:15 51°14.182 2°55.353 328.7 8.6 327 12.7
2008-10-22 07:04:15 51°14.298 2°55.183 312.2 10 308 12.3
2008-10-22 07:05:15 51°14.392 2°54.957 301 10.6 304 12.3
2008-10-22 07:06:15 51°14.494 2°54.7 296.9 11.8 300 13
2008-10-22 07:07:15 51°14.589 2°54.427 294 11.7 297 12.8
2008-10-22 07:08:15 51°14.656 2°54.138 284.2 11.5 286 13.1
2008-10-22 07:09:15 51°14.703 2°53.842 280.1 11.5 284 12.6
2008-10-22 07:10:15 51°14.747 2°53.542 281.1 11.7 283 12.3
2008-10-22 07:11:15 51°14.791 2°53.241 279.8 11.7 284 12.1
2008-10-22 07:12:15 51°14.835 2°52.94 280.1 11.6 284 11.5
2008-10-22 07:13:15 51°14.87 2°52.641 277.2 11.4 281 11.6
2008-10-22 07:14:15 51°14.906 2°52.343 278.1 11.5 280 11.9
2008-10-22 07:15:15 51°14.944 2°52.046 278.4 11.5 283 12.2
2008-10-22 07:16:15 51°14.985 2°51.75 279.3 11.4 283 12.9
2008-10-22 07:17:15 51°15.034 2°51.456 282.3 11.5 285 13.3
2008-10-22 07:18:15 51°15.084 2°51.162 281.9 11.5 284 13.8
2008-10-22 07:19:15 51°15.132 2°50.867 281.5 11.5 286 14.3
2008-10-22 07:20:15 51°15.18 2°50.572 280.6 11.5 283 14.3
2008-10-22 07:21:15 51°15.226 2°50.276 280.9 11.5 284 14.5
2008-10-22 07:22:15 51°15.272 2°49.978 280.6 11.6 284 14.5
2008-10-22 07:23:15 51°15.329 2°49.684 284.3 11.7 287 14.4
2008-10-22 07:24:15 51°15.389 2°49.391 284.3 11.6 286 14.8
2008-10-22 07:25:15 51°15.448 2°49.098 286.4 11.6 289 14.6
2008-10-22 07:26:15 51°15.512 2°48.808 286.2 11.6 289 12.6
2008-10-22 07:27:15 51°15.573 2°48.516 285.8 11.7 288 12.1
2008-10-22 07:28:15 51°15.635 2°48.222 285.9 11.7 288 12.8
2008-10-22 07:29:15 51°15.695 2°47.928 283.9 11.6 286 14.1
2008-10-22 07:30:15 51°15.756 2°47.634 286 11.6 289 16
2008-10-22 07:31:15 51°15.819 2°47.343 284.9 11.6 288 17.1
2008-10-22 07:32:15 51°15.881 2°47.052 285.2 11.5 289 18.3
2008-10-22 07:33:15 51°15.938 2°46.76 284.7 11.5 288 17.9
2008-10-22 07:34:15 51°15.996 2°46.47 283.8 11.5 288 15.9
2008-10-22 07:35:15 51°16.061 2°46.182 288.8 11.6 295 14
2008-10-22 07:36:15 51°16.153 2°45.909 295.8 11.8 301 12.3
2008-10-22 07:37:15 51°16.257 2°45.64 297.3 11.9 302 12
2008-10-22 07:38:15 51°16.359 2°45.369 296.8 11.9 302 12.3
2008-10-22 07:39:15 51°16.461 2°45.098 298.9 12 303 13
2008-10-22 07:40:15 51°16.57 2°44.834 299.2 11.9 303 12.9
2008-10-22 07:41:15 51°16.679 2°44.569 299 12 302 13.8
2008-10-22 07:42:15 51°16.784 2°44.301 298.2 12 303 16.2
2008-10-22 07:43:15 51°16.9 2°44.042 302.8 12 306 16.8
2008-10-22 07:44:13 51°17.01 2°43.791 299.6 11.9 302 16.3
2008-10-22 07:45:12 51°17.117 2°43.531 299.9 11.9 304 16.1
2008-10-22 07:46:11 51°17.225 2°43.274 300.8 11.8 305 12.7
2008-10-22 07:47:12 51°17.341 2°43.015 303.1 11.8 307 11.5
2008-10-22 07:48:11 51°17.456 2°42.767 302.5 11.9 307 14.2
2008-10-22 07:49:11 51°17.575 2°42.512 302.8 12 309 23.5
2008-10-22 07:50:11 51°17.696 2°42.259 301.8 12 307 24.9
2008-10-22 07:51:11 51°17.808 2°41.999 299.3 11.9 305 25.2
2008-10-22 07:52:11 51°17.92 2°41.738 299.6 11.9 303 25
2008-10-22 07:53:11 51°18.027 2°41.475 298.9 11.9 303 23.3
2008-10-22 07:54:11 51°18.135 2°41.211 300.1 11.8 304 21.9
2008-10-22 07:55:11 51°18.243 2°40.951 299.7 11.8 303 16.7
2008-10-22 07:56:11 51°18.351 2°40.691 299.5 11.8 304 21.6
2008-10-22 07:57:11 51°18.459 2°40.434 299.6 11.7 305 17.4
2008-10-22 07:58:11 51°18.57 2°40.178 299.7 11.8 304 24.6
2008-10-22 07:59:12 51°18.682 2°39.913 298.9 11.9 304 25.7
2008-10-22 08:00:11 51°18.792 2°39.658 299.3 11.9 305 25.5
2008-10-22 08:01:12 51°18.903 2°39.389 297.5 12 303 26.2
2008-10-22 08:02:11 51°19.011 2°39.129 299.6 12 305 28.2
2008-10-22 08:03:12 51°19.126 2°38.862 299.8 11.9 304 29
2008-10-22 08:04:11 51°19.235 2°38.602 299.6 11.9 303 28.1
2008-10-22 08:05:12 51°19.345 2°38.333 300 11.9 303 25.3
2008-10-22 08:06:11 51°19.453 2°38.075 301.4 11.9 305 23.5
2008-10-22 08:07:11 51°19.567 2°37.815 302.1 11.9 306 22.2
2008-10-22 08:08:12 51°19.684 2°37.554 302.6 11.9 308 22.5
2008-10-22 08:09:11 51°19.8 2°37.309 303.6 11.2 310 23.4
2008-10-22 08:10:11 51°19.914 2°37.095 307.1 10.5 313 22.8
2008-10-22 08:11:11 51°20.025 2°36.902 307.5 8.1 315 23.2
2008-10-22 08:12:12 51°20.068 2°36.858 321.5 1.2 65 23.5
2008-10-22 08:13:14 51°20.08 2°36.881 350.2 1.2 44 23.9
2008-10-22 08:14:13 51°20.095 2°36.906 358.5 1.4 50 21.6
2008-10-22 08:15:11 51°20.109 2°36.932 4.5 1.3 50 23.6
2008-10-22 08:16:11 51°20.122 2°36.96 7.1 1.3 52 23.1
2008-10-22 08:17:11 51°20.134 2°36.99 8.6 1.4 60 21.8
2008-10-22 08:18:11 51°20.145 2°37.022 7.1 1.4 58 23.1
2008-10-22 08:19:11 51°20.155 2°37.052 5.5 1.4 64 22.6
2008-10-22 08:20:11 51°20.164 2°37.084 7.3 1.3 67 22.6
2008-10-22 08:21:11 51°20.174 2°37.114 7.9 1.3 61 23.4
2008-10-22 08:22:11 51°20.183 2°37.145 7.9 1.3 64 22.9
2008-10-22 08:23:11 51°20.192 2°37.175 9.7 1.2 64 22.2
2008-10-22 08:24:11 51°20.202 2°37.204 8.8 1.3 61 23
2008-10-22 08:25:11 51°20.211 2°37.232 8.1 1.1 61 20.8
2008-10-22 08:26:12 51°20.224 2°37.261 0.4 1.8 34 23.3
2008-10-22 08:27:11 51°20.261 2°37.264 318.5 2.5 341 23.4
2008-10-22 08:28:11 51°20.283 2°37.218 259.5 2.2 266 23.5
2008-10-22 08:29:11 51°20.253 2°37.194 181.2 3 169 21
2008-10-22 08:30:11 51°20.208 2°37.177 226.8 2.9 227 22.3
2008-10-22 08:31:12 51°20.174 2°37.104 235.8 3.7 233 23.1
2008-10-22 08:32:11 51°20.151 2°37.039 241.6 2 245 22.7
2008-10-22 08:33:12 51°20.141 2°37.004 240.6 0.9 246 21.8
2008-10-22 08:34:11 51°20.137 2°36.992 238.7 0.2 254 21.5
2008-10-22 08:35:12 51°20.137 2°36.992 235.8 0.2 38 21.4
2008-10-22 08:36:11 51°20.139 2°37.001 235.5 0.5 82 22
2008-10-22 08:37:11 51°20.141 2°37.014 236.1 0.3 76 22.5
2008-10-22 08:38:11 51°20.139 2°37.013 245.5 0.3 256 22.4
2008-10-22 08:39:12 51°20.136 2°36.998 240.5 0.8 249 21.7
2008-10-22 08:40:11 51°20.128 2°36.981 237.7 0.5 231 20.8
2008-10-22 08:41:11 51°20.125 2°36.981 235.6 0.2 98 21.6
2008-10-22 08:42:11 51°20.127 2°36.991 236.3 0.6 58 20.7
2008-10-22 08:43:11 51°20.134 2°37.011 231.7 1 56 22
2008-10-22 08:44:11 51°20.142 2°37.041 212.4 1.3 57 22.6
2008-10-22 08:45:11 51°20.154 2°37.071 187 1.3 57 21
2008-10-22 08:46:11 51°20.165 2°37.099 167.6 1.2 58 22.4
2008-10-22 08:47:11 51°20.175 2°37.125 158 1.3 58 23.1
2008-10-22 08:48:11 51°20.185 2°37.151 153.8 1.3 61 22.6
2008-10-22 08:49:12 51°20.193 2°37.177 156.4 1.1 63 22
2008-10-22 08:50:11 51°20.201 2°37.204 160.7 1.1 65 22.9
2008-10-22 08:51:12 51°20.209 2°37.231 160.8 1.1 68 21.5
2008-10-22 08:52:11 51°20.217 2°37.257 163.7 1 67 22.5
2008-10-22 08:53:12 51°20.203 2°37.278 192.3 1.7 173 23
2008-10-22 08:54:11 51°20.177 2°37.232 249.7 3.3 253 22.8
2008-10-22 08:55:11 51°20.165 2°37.124 263.9 4.5 272 22.7
2008-10-22 08:56:11 51°20.174 2°36.993 270.5 5.1 277 22.5
2008-10-22 08:57:11 51°20.19 2°36.898 281.5 2.8 293 22.3
2008-10-22 08:58:12 51°20.214 2°36.851 293.5 1.9 321 22.7
2008-10-22 08:59:12 51°20.238 2°36.834 302.4 1.4 359 23
2008-10-22 09:00:11 51°20.257 2°36.839 307.4 1.1 14 23.4
2008-10-22 09:01:11 51°20.274 2°36.852 310.5 1 34 21.6
2008-10-22 09:02:12 51°20.289 2°36.873 320.5 1.2 37 22.5
2008-10-22 09:03:11 51°20.315 2°36.864 296 2.5 313 22.3
2008-10-22 09:04:11 51°20.308 2°36.801 218.4 2.8 210 22.7
2008-10-22 09:05:11 51°20.26 2°36.836 138.7 3.7 128 23.1
2008-10-22 09:06:11 51°20.226 2°36.907 143.5 3 130 23.1
2008-10-22 09:07:12 51°20.193 2°36.951 164 2.2 152 22.7
2008-10-22 09:08:11 51°20.167 2°36.974 177.6 1.4 148 21.5
2008-10-22 09:09:12 51°20.152 2°36.991 180.4 1 133 21.3
2008-10-22 09:10:11 51°20.145 2°37.01 183.5 0.8 117 22.1
2008-10-22 09:11:12 51°20.142 2°37.029 186.8 0.8 94 22.2
2008-10-22 09:12:11 51°20.142 2°37.049 184.1 0.8 89 22.3
2008-10-22 09:13:11 51°20.144 2°37.071 181.3 0.9 75 22.2
2008-10-22 09:14:12 51°20.149 2°37.095 176.9 1 67 21.2
2008-10-22 09:15:12 51°20.156 2°37.12 168.1 1 67 22.2
2008-10-22 09:16:12 51°20.163 2°37.144 162.8 1 63 22.7
2008-10-22 09:17:11 51°20.169 2°37.166 162.2 1 65 22.2
2008-10-22 09:18:12 51°20.176 2°37.19 162.8 0.9 70 22.1
2008-10-22 09:19:11 51°20.182 2°37.213 163.5 0.9 63 22.2
2008-10-22 09:20:11 51°20.189 2°37.236 161.9 0.9 65 22.3
2008-10-22 09:21:12 51°20.196 2°37.257 165.2 0.9 65 21.4
2008-10-22 09:22:12 51°20.203 2°37.278 166.3 0.9 62 22.5
2008-10-22 09:23:12 51°20.21 2°37.299 165.4 0.8 64 22.9
2008-10-22 09:24:12 51°20.216 2°37.32 167.4 0.8 83 22.2
2008-10-22 09:25:12 51°20.198 2°37.332 199.6 1.8 186 22.3
2008-10-22 09:26:11 51°20.177 2°37.298 249.3 2.2 253 22.4
2008-10-22 09:27:11 51°20.181 2°37.232 269 2.3 281 22.2
2008-10-22 09:28:12 51°20.187 2°37.186 265.4 1.5 285 21.2
2008-10-22 09:29:12 51°20.193 2°37.157 259.7 0.8 282 22.5
2008-10-22 09:30:12 51°20.195 2°37.139 250.3 0.6 269 22.1
2008-10-22 09:31:12 51°20.195 2°37.127 249 0.5 275 22.1
2008-10-22 09:32:12 51°20.195 2°37.119 256.6 0.3 235 22.4
2008-10-22 09:33:11 51°20.199 2°37.114 264.5 0.3 346 22.4
2008-10-22 09:34:12 51°20.205 2°37.112 272.9 0.5 358 22.5
2008-10-22 09:35:11 51°20.216 2°37.11 282.3 0.9 331 22.6
2008-10-22 09:36:11 51°20.22 2°37.074 239.2 1.4 251 22.5
2008-10-22 09:37:11 51°20.212 2°37.061 213.3 0.4 192 22.2
2008-10-22 09:38:12 51°20.208 2°37.069 201 0.4 112 22.4
2008-10-22 09:39:12 51°20.208 2°37.085 191.1 0.6 82 22.5
2008-10-22 09:40:12 51°20.211 2°37.104 177 0.8 73 22.6
2008-10-22 09:41:12 51°20.216 2°37.124 164.3 0.9 64 22.1
2008-10-22 09:42:11 51°20.222 2°37.142 154 0.7 57 22.4
2008-10-22 09:43:12 51°20.229 2°37.161 149.4 0.9 60 22.1
2008-10-22 09:44:11 51°20.236 2°37.18 147.1 0.8 57 22.6
2008-10-22 09:45:12 51°20.243 2°37.2 151.8 0.8 63 21.6
2008-10-22 09:46:12 51°20.248 2°37.217 157.8 0.7 64 21
2008-10-22 09:47:11 51°20.253 2°37.233 163.7 0.6 65 22.2
2008-10-22 09:48:12 51°20.258 2°37.25 166.1 0.7 73 22.3
2008-10-22 09:49:12 51°20.244 2°37.261 194.2 1.3 178 22.4
2008-10-22 09:50:12 51°20.223 2°37.244 229.7 1.7 222 21.3
2008-10-22 09:51:12 51°20.208 2°37.2 249 2.2 251 22.2
2008-10-22 09:52:12 51°20.197 2°37.135 250.5 2.6 254 21.9
2008-10-22 09:53:12 51°20.188 2°37.083 250.4 1.5 256 22
2008-10-22 09:54:11 51°20.184 2°37.058 248.2 0.6 248 21
2008-10-22 09:55:12 51°20.184 2°37.049 250.8 0.1 217 19.9
2008-10-22 09:56:12 51°20.185 2°37.053 246.7 0.3 69 20.5
2008-10-22 09:57:12 51°20.188 2°37.066 235.7 0.6 72 21.4
2008-10-22 09:58:11 51°20.192 2°37.085 220.4 0.9 69 22.3
2008-10-22 09:59:12 51°20.199 2°37.106 197.9 0.8 64 22.6
2008-10-22 10:00:12 51°20.205 2°37.123 174.7 0.7 54 22
2008-10-22 10:01:12 51°20.211 2°37.139 161.1 0.8 61 22
2008-10-22 10:02:12 51°20.217 2°37.157 147.2 0.8 60 22.1
2008-10-22 10:03:11 51°20.223 2°37.175 140.8 0.8 62 21.9
2008-10-22 10:04:12 51°20.227 2°37.194 146.7 0.7 78 22.3
2008-10-22 10:05:11 51°20.229 2°37.211 157.4 0.5 86 21.2
2008-10-22 10:06:12 51°20.23 2°37.226 166.5 0.5 79 20.5
2008-10-22 10:07:11 51°20.22 2°37.239 179.5 1.3 167 21
2008-10-22 10:08:11 51°20.196 2°37.233 212.1 1.6 205 21.7
2008-10-22 10:09:12 51°20.177 2°37.203 245.6 1.7 245 21.4
2008-10-22 10:10:12 51°20.17 2°37.15 254.7 2.3 258 22
2008-10-22 10:11:12 51°20.161 2°37.086 253.3 2.3 259 21.2
2008-10-22 10:12:12 51°20.159 2°37.048 261.3 1.1 270 21.8
2008-10-22 10:13:12 51°20.164 2°37.03 271.7 0.6 301 22
2008-10-22 10:14:11 51°20.172 2°37.027 290.2 0.5 16 21.9
2008-10-22 10:15:12 51°20.182 2°37.036 314.3 0.7 42 21.3
2008-10-22 10:16:12 51°20.189 2°37.049 336.6 0.7 52 20.5
2008-10-22 10:17:11 51°20.195 2°37.063 354.1 0.6 51 21.6
2008-10-22 10:18:11 51°20.2 2°37.078 3.4 0.6 66 22.1
2008-10-22 10:19:11 51°20.204 2°37.093 5.3 0.6 65 22.2
2008-10-22 10:20:11 51°20.208 2°37.108 4.1 0.5 65 22.1
2008-10-22 10:21:11 51°20.212 2°37.122 0.9 0.6 77 21.8
2008-10-22 10:22:11 51°20.214 2°37.138 359.5 0.7 79 21.8
2008-10-22 10:23:11 51°20.218 2°37.152 358.7 0.7 71 21.8
2008-10-22 10:24:11 51°20.222 2°37.166 359.9 0.7 69 21.6
2008-10-22 10:25:11 51°20.226 2°37.181 1.2 0.6 74 21.9
2008-10-22 10:26:11 51°20.23 2°37.196 359.2 0.6 65 21.9
2008-10-22 10:27:11 51°20.235 2°37.209 355 0.6 63 19.7
2008-10-22 10:28:11 51°20.256 2°37.217 350.5 2.5 355 21.8
2008-10-22 10:29:11 51°20.312 2°37.2 341.7 3.9 346 22.3
2008-10-22 10:30:11 51°20.367 2°37.173 335.9 2.7 343 20.3
2008-10-22 10:31:11 51°20.4 2°37.158 333.1 1.7 345 22.3
2008-10-22 10:32:11 51°20.424 2°37.15 328.2 1.1 351 22.6
2008-10-22 10:33:12 51°20.442 2°37.148 326.1 0.9 356 22.6
2008-10-22 10:34:11 51°20.455 2°37.151 326.8 0.7 12 22.8
2008-10-22 10:35:11 51°20.469 2°37.156 338 1.4 356 22.8
2008-10-22 10:36:11 51°20.514 2°37.179 39.5 3.7 44 22.8
2008-10-22 10:37:11 51°20.519 2°37.276 113.6 4.3 113 22.8
2008-10-22 10:38:11 51°20.471 2°37.385 125.4 5.6 126 22.3
2008-10-22 10:39:11 51°20.412 2°37.523 123.5 7.1 125 22.2
2008-10-22 10:40:11 51°20.331 2°37.698 127.6 8.6 129 20.8
2008-10-22 10:41:11 51°20.237 2°37.876 129 8.9 131 22.5
2008-10-22 10:42:11 51°20.143 2°38.054 128 8.8 133 22.9
2008-10-22 10:43:12 51°20.047 2°38.236 129.1 8.7 131 22.4
2008-10-22 10:44:11 51°19.953 2°38.41 129.8 8.8 130 22.5
2008-10-22 10:45:11 51°19.856 2°38.587 129.1 8.8 129 22.5
2008-10-22 10:46:11 51°19.761 2°38.766 129.3 8.8 131 23.8
2008-10-22 10:47:11 51°19.667 2°38.943 129.4 8.9 130 25.8
2008-10-22 10:48:11 51°19.573 2°39.124 128.8 8.8 130 27.8
2008-10-22 10:49:11 51°19.479 2°39.307 129.6 8.9 130 29.2
2008-10-22 10:50:12 51°19.385 2°39.493 129.5 8.8 129 28.5
2008-10-22 10:51:11 51°19.292 2°39.672 129 8.8 129 26.1
2008-10-22 10:52:11 51°19.199 2°39.853 130 8.9 127 23.8
2008-10-22 10:53:11 51°19.104 2°40.032 129.6 8.8 131 22
2008-10-22 10:54:11 51°19.008 2°40.21 129.9 8.9 133 21.2
2008-10-22 10:55:11 51°18.911 2°40.386 129.3 8.8 133 19.8
2008-10-22 10:56:11 51°18.813 2°40.56 128.7 8.6 132 10.1
2008-10-22 10:57:12 51°18.721 2°40.743 124.4 8.6 129 19
2008-10-22 10:58:11 51°18.634 2°40.925 125.4 8.8 131 17.1
2008-10-22 10:59:12 51°18.545 2°41.11 124.8 8.7 129 18.5
2008-10-22 11:00:11 51°18.457 2°41.29 126.2 8.7 128 18
2008-10-22 11:01:12 51°18.366 2°41.48 125 8.8 123 18.8
2008-10-22 11:02:11 51°18.276 2°41.661 129.2 8.9 129 22.2
2008-10-22 11:03:12 51°18.177 2°41.84 130.1 8.9 131 22.7
2008-10-22 11:04:11 51°18.081 2°42.014 129.1 8.9 131 23.2
2008-10-22 11:05:12 51°17.982 2°42.195 129.2 8.8 130 23.6
2008-10-22 11:06:12 51°17.886 2°42.372 129.7 8.8 132 23.4
2008-10-22 11:07:11 51°17.789 2°42.545 129.7 8.9 131 22.4
2008-10-22 11:08:12 51°17.69 2°42.723 129.5 8.8 130 21
2008-10-22 11:09:11 51°17.593 2°42.894 129.3 8.9 133 13.5
2008-10-22 11:10:12 51°17.494 2°43.075 128 9.6 130 10.9
2008-10-22 11:11:11 51°17.385 2°43.271 129 10.6 131 12.2
2008-10-22 11:12:11 51°17.264 2°43.482 130.9 10.9 132 14.5
2008-10-22 11:13:11 51°17.145 2°43.709 127.4 11.2 128 14.1
2008-10-22 11:14:12 51°17.027 2°43.946 125.5 11.4 127 14.2
2008-10-22 11:15:12 51°16.907 2°44.179 126.2 11.3 127 14.8
2008-10-22 11:16:12 51°16.789 2°44.414 125.7 11.3 131 13.9
2008-10-22 11:17:12 51°16.673 2°44.649 126.6 11.1 129 12.2
2008-10-22 11:18:11 51°16.574 2°44.893 120.9 10.9 126 10.6
2008-10-22 11:19:12 51°16.471 2°45.148 120.5 11.1 125 10.9
2008-10-22 11:20:12 51°16.38 2°45.405 117.2 10.9 122 10.2
2008-10-22 11:21:11 51°16.293 2°45.658 116.4 11.1 121 9.6
2008-10-22 11:22:12 51°16.197 2°45.917 118.4 11.4 121 10.1
2008-10-22 11:23:11 51°16.114 2°46.177 112.9 11.4 113 11.2
2008-10-22 11:24:12 51°16.038 2°46.462 111.1 11.5 115 11.6
2008-10-22 11:25:12 51°15.962 2°46.744 112.1 11.7 115 15.3
2008-10-22 11:26:12 51°15.885 2°47.024 111 11.6 116 15.9
2008-10-22 11:27:11 51°15.808 2°47.299 108.9 11.4 113 15.2
2008-10-22 11:28:12 51°15.738 2°47.588 107.8 11.5 110 13.7
2008-10-22 11:29:11 51°15.67 2°47.873 108.4 11.6 112 11.8
2008-10-22 11:30:11 51°15.605 2°48.156 106.7 11.4 111 10.3
2008-10-22 11:31:12 51°15.538 2°48.445 106.5 11.2 110 9.6
2008-10-22 11:32:12 51°15.47 2°48.729 107.5 11.6 112 10.1
2008-10-22 11:33:12 51°15.402 2°49.014 108.9 11.4 108 12.1
2008-10-22 11:34:12 51°15.333 2°49.299 109.4 11.5 113 12.2
2008-10-22 11:35:12 51°15.265 2°49.582 106.6 11.4 110 11.9
2008-10-22 11:36:11 51°15.211 2°49.872 102.9 11.7 108 12.1
2008-10-22 11:37:12 51°15.165 2°50.173 100.4 11.4 102 12.1
2008-10-22 11:38:12 51°15.119 2°50.468 100.2 11.5 101 11.6
2008-10-22 11:39:11 51°15.069 2°50.755 103.3 11.4 107 11.4
2008-10-22 11:40:12 51°15.017 2°51.054 102.1 11.5 104 11.2
2008-10-22 11:41:12 51°14.971 2°51.347 101.5 11.2 101 10.7
2008-10-22 11:42:12 51°14.931 2°51.636 98.5 11.2 100 10.3
2008-10-22 11:43:12 51°14.897 2°51.928 97.8 11.1 101 9.7
2008-10-22 11:44:12 51°14.857 2°52.218 100.7 11.1 106 9.2
2008-10-22 11:45:11 51°14.818 2°52.504 98.6 11.1 103 8.9
2008-10-22 11:46:12 51°14.775 2°52.803 100.1 11.5 104 8.7
2008-10-22 11:47:12 51°14.735 2°53.1 97.5 11.5 99 8.5
2008-10-22 11:48:12 51°14.701 2°53.398 98 11.4 100 8.3
2008-10-22 11:49:12 51°14.662 2°53.692 98.6 11.3 104 9.3
2008-10-22 11:50:12 51°14.615 2°53.992 101.9 11.6 103 10.5
2008-10-22 11:51:12 51°14.564 2°54.288 103.2 11.5 107 10
2008-10-22 11:52:12 51°14.504 2°54.579 105.6 11.7 109 10.4
2008-10-22 11:53:12 51°14.429 2°54.859 114.4 11.7 120 10.1
2008-10-22 11:54:12 51°14.332 2°55.124 123.3 11.7 126 10
2008-10-22 11:55:12 51°14.208 2°55.327 138.5 9.4 142 9.8
2008-10-22 11:56:12 51°14.092 2°55.428 152.7 7.3 154 9.1